Fifield, Wisconsin
Current Conditions -  °F | °C
As of 1:55 PM on Thursday 18 Dec 2014 (Local Time) from KPBH Reporting Station
Overcast Overcast  
Wind Chill: 14°   Ceiling: 1200
Heat Index: 21°   Visibility: 10mi
Dew Point: 17°   Wind: 6mph
Humidity: 83%   Direction: 170°S
Pressure: 30.21"   Gusts: NA
Location:  45.88°N, 90.42°W
Report Text: KPBH 181955Z AUTO 17005KT 10SM OVC012 M06/M08 A3021 RMK AO2 T10601085
Loading
Personal Weather Stations






























Interactive Weather Map New forecast layout! Learn more

10-Day Weather Forecast

Advertisements
Track Severe Weather on mobile